Time;durP1;ratioP1;P1;durP2;ratioP2;P2;SDS_P1;SDS_P2;PMS_P1;PMS_P2;Temp;Humidity;BMP_temperature;BMP_pressure;BME280_temperature;BME280_humidity;BME280_pressure;Samples;Min_cycle;Max_cycle;Signal;HPM_P1;HPM_P2
2021/08/30 00:02:25;;;;;;;0.27;0.27;;;13.90;99.90;;;;;;5023963;28;20747;-76
2021/08/30 00:04:51;;;;;;;0.20;0.20;;;14.10;99.90;;;;;;5027362;28;20033;-76
2021/08/30 00:07:17;;;;;;;0.27;0.27;;;14.00;99.90;;;;;;5026487;28;20037;-77
2021/08/30 00:09:42;;;;;;;0.03;0.03;;;14.10;99.90;;;;;;5026428;28;20035;-77
2021/08/30 00:12:10;;;;;;;0.30;0.30;;;14.10;99.90;;;;;;5025959;28;20504;-77
2021/08/30 00:14:38;;;;;;;0.40;0.40;;;14.00;99.90;;;;;;5028296;28;20037;-77
2021/08/30 00:17:03;;;;;;;0.47;0.47;;;13.90;99.90;;;;;;5025590;28;20048;-78
2021/08/30 00:19:33;;;;;;;0.47;0.47;;;13.90;99.90;;;;;;5026358;28;20025;-78
2021/08/30 00:21:58;;;;;;;0.30;0.25;;;13.80;99.90;;;;;;5027136;28;20039;-77
2021/08/30 00:24:24;;;;;;;0.23;0.23;;;13.80;99.90;;;;;;5025815;28;20560;-77
2021/08/30 00:26:53;;;;;;;0.20;0.20;;;13.80;99.90;;;;;;5026911;28;20240;-77
2021/08/30 00:29:24;;;;;;;0.20;0.20;;;13.80;99.90;;;;;;5025837;28;20033;-77
2021/08/30 00:31:57;;;;;;;0.28;0.28;;;13.80;99.90;;;;;;5026936;28;20033;-76
2021/08/30 00:34:23;;;;;;;0.32;0.32;;;13.70;99.90;;;;;;5024841;28;20022;-76
2021/08/30 00:36:50;;;;;;;0.60;0.60;;;13.80;99.90;;;;;;5025015;28;20045;-76
2021/08/30 00:39:23;;;;;;;0.30;0.30;;;13.80;99.90;;;;;;5025415;28;20112;-77
2021/08/30 00:41:52;;;;;;;0.10;0.10;;;13.60;99.90;;;;;;5026462;28;20032;-77
2021/08/30 00:44:18;;;;;;;0.40;0.40;;;13.60;99.90;;;;;;5027223;28;20038;-77
2021/08/30 00:46:43;;;;;;;0.20;0.20;;;13.70;99.90;;;;;;5026095;28;20030;-77
2021/08/30 00:49:09;;;;;;;1.87;0.77;;;13.90;99.90;;;;;;5022130;28;20492;-78
2021/08/30 00:51:35;;;;;;;0.17;0.13;;;13.80;99.90;;;;;;5024908;28;20040;-77
2021/08/30 00:54:02;;;;;;;0.40;0.40;;;13.60;99.90;;;;;;5026326;28;20022;-77
2021/08/30 00:56:28;;;;;;;0.10;0.10;;;13.50;99.90;;;;;;5027312;28;20049;-76
2021/08/30 00:58:54;;;;;;;0.20;0.20;;;13.50;99.90;;;;;;5026514;28;20032;-76
2021/08/30 01:01:21;;;;;;;0.17;0.17;;;13.50;99.90;;;;;;5026371;28;20037;-77
2021/08/30 01:03:48;;;;;;;0.17;0.17;;;13.60;99.90;;;;;;5026157;28;20053;-77
2021/08/30 01:06:44;;;;;;;0.65;0.65;;;13.70;99.90;;;;;;5026199;28;23576;-77
2021/08/30 01:09:27;;;;;;;0.40;0.40;;;13.70;99.90;;;;;;5023046;28;20061;-77
2021/08/30 01:12:01;;;;;;;0.80;0.40;;;13.70;99.90;;;;;;5029335;28;20132;-76
2021/08/30 01:14:31;;;;;;;0.25;0.25;;;13.50;99.90;;;;;;5025979;28;20562;-76
2021/08/30 01:16:58;;;;;;;0.20;0.20;;;13.60;99.90;;;;;;5025788;28;20045;-76
2021/08/30 01:19:34;;;;;;;0.30;0.30;;;13.40;99.90;;;;;;5024491;28;20072;-76
2021/08/30 01:22:05;;;;;;;0.05;0.05;;;13.40;99.90;;;;;;5018785;28;20116;-76
2021/08/30 01:24:33;;;;;;;0.40;0.40;;;13.30;99.90;;;;;;5025372;28;20025;-76
2021/08/30 01:27:00;;;;;;;0.20;0.20;;;13.30;99.90;;;;;;5025736;28;20037;-76
2021/08/30 01:29:29;;;;;;;0.10;0.10;;;13.40;99.90;;;;;;5024583;28;20025;-76
2021/08/30 01:32:09;;;;;;;0.40;0.40;;;13.40;99.90;;;;;;5021923;28;20460;-77
2021/08/30 01:34:36;;;;;;;0.22;0.22;;;13.50;99.90;;;;;;5020538;28;20199;-77
2021/08/30 01:37:02;;;;;;;0.10;0.10;;;13.70;99.90;;;;;;5025089;28;20515;-77
2021/08/30 01:39:30;;;;;;;0.20;0.20;;;13.50;99.90;;;;;;5024917;28;20499;-76
2021/08/30 01:42:00;;;;;;;0.73;0.60;;;13.50;99.90;;;;;;5024263;28;20508;-76
2021/08/30 01:44:27;;;;;;;0.30;0.30;;;13.40;99.90;;;;;;5025815;28;20029;-77
2021/08/30 01:46:55;;;;;;;0.30;0.30;;;13.30;99.90;;;;;;5023880;28;20038;-76
2021/08/30 01:49:24;;;;;;;0.47;0.47;;;13.30;99.90;;;;;;5023463;28;20091;-76
2021/08/30 01:51:50;;;;;;;1.17;1.08;;;13.20;99.90;;;;;;5024319;28;20033;-76
2021/08/30 01:54:17;;;;;;;0.00;0.00;;;13.20;99.90;;;;;;5023676;28;20036;-76
2021/08/30 01:56:48;;;;;;;0.32;0.32;;;13.20;99.90;;;;;;5025986;28;20091;-76
2021/08/30 02:02:01;;;;;;;0.35;0.35;;;13.10;99.90;;;;;;5024107;28;20049;-77
2021/08/30 02:04:27;;;;;;;0.20;0.20;;;13.20;99.90;;;;;;5023642;28;20049;-76
2021/08/30 02:06:53;;;;;;;0.10;0.10;;;13.20;99.90;;;;;;5024914;28;20168;-76
2021/08/30 02:09:19;;;;;;;0.13;0.13;;;13.40;99.90;;;;;;5023201;28;20030;-76
2021/08/30 02:11:45;;;;;;;0.40;0.40;;;13.20;99.90;;;;;;5026757;28;20052;-76
2021/08/30 02:14:11;;;;;;;0.40;0.40;;;13.10;99.90;;;;;;5024634;28;20033;-76
2021/08/30 02:16:37;;;;;;;0.10;0.10;;;13.30;99.90;;;;;;5023567;28;20040;-76
2021/08/30 02:19:03;;;;;;;0.10;0.10;;;13.20;99.90;;;;;;5025086;28;20033;-75
2021/08/30 02:21:41;;;;;;;0.10;0.10;;;13.10;99.90;;;;;;5023859;28;20025;-76
2021/08/30 02:24:32;;;;;;;0.20;0.20;;;13.30;99.90;;;;;;5023810;28;20036;-77
2021/08/30 02:27:06;;;;;;;0.13;0.10;;;13.20;99.90;;;;;;5022549;28;20025;-77
2021/08/30 02:29:43;;;;;;;0.10;0.10;;;13.40;99.90;;;;;;5025314;28;20029;-76
2021/08/30 02:32:09;;;;;;;;;;;13.40;99.90;;;;;;5023650;28;20037;-76
2021/08/30 02:34:37;;;;;;;0.10;0.10;;;13.30;99.90;;;;;;5023603;28;19917;-76
2021/08/30 02:37:05;;;;;;;0.10;0.10;;;13.30;99.90;;;;;;5022951;28;20072;-76
2021/08/30 02:39:31;;;;;;;3.72;1.08;;;13.30;99.90;;;;;;5022667;28;20723;-76
2021/08/30 02:41:59;;;;;;;0.10;0.10;;;13.30;99.90;;;;;;5024758;28;20682;-76
2021/08/30 02:44:25;;;;;;;0.10;0.10;;;13.40;99.90;;;;;;5023102;28;20049;-77
2021/08/30 02:46:51;;;;;;;0.32;0.32;;;13.00;99.90;;;;;;5021139;28;20649;-76
2021/08/30 02:49:16;;;;;;;0.10;0.10;;;13.10;99.90;;;;;;5024574;28;20125;-76
2021/08/30 02:51:44;;;;;;;0.37;0.37;;;12.90;99.90;;;;;;5024007;28;20571;-76
2021/08/30 02:54:10;;;;;;;0.75;0.50;;;12.90;99.90;;;;;;5024239;28;20462;-76
2021/08/30 02:56:37;;;;;;;0.10;0.10;;;12.90;99.90;;;;;;5025423;28;20052;-76
2021/08/30 02:59:04;;;;;;;0.30;0.30;;;12.90;99.90;;;;;;5022905;28;20043;-76
2021/08/30 03:01:32;;;;;;;0.10;0.10;;;12.80;99.90;;;;;;5022998;28;20164;-76
2021/08/30 03:03:58;;;;;;;0.03;0.03;;;12.90;99.90;;;;;;5022745;28;20041;-76
2021/08/30 03:06:25;;;;;;;0.10;0.10;;;12.90;99.90;;;;;;5024440;28;20048;-76
2021/08/30 03:08:51;;;;;;;;;;;12.90;99.90;;;;;;5025791;28;20291;-77
2021/08/30 03:11:18;;;;;;;0.52;0.52;;;13.10;99.90;;;;;;5024149;28;19913;-76
2021/08/30 03:13:46;;;;;;;0.10;0.10;;;13.10;99.90;;;;;;5023833;28;20037;-77
2021/08/30 03:16:14;;;;;;;0.52;0.47;;;13.00;99.90;;;;;;5023013;28;20037;-77
2021/08/30 03:18:41;;;;;;;0.20;0.20;;;13.00;99.90;;;;;;5022995;28;20496;-76
2021/08/30 03:21:08;;;;;;;0.15;0.15;;;13.00;99.90;;;;;;5022637;28;20108;-77
2021/08/30 03:23:38;;;;;;;0.45;0.40;;;13.00;99.90;;;;;;5023630;28;20091;-77
2021/08/30 03:26:05;;;;;;;0.13;0.13;;;13.00;99.90;;;;;;5022906;28;20076;-77
2021/08/30 03:28:31;;;;;;;0.28;0.28;;;12.90;99.90;;;;;;5022624;28;20060;-76
2021/08/30 03:30:57;;;;;;;0.70;0.70;;;12.80;99.90;;;;;;5014299;28;20021;-76
2021/08/30 03:33:24;;;;;;;0.13;0.13;;;12.90;99.90;;;;;;5023803;28;20048;-76
2021/08/30 03:35:54;;;;;;;0.20;0.20;;;12.70;99.90;;;;;;5024499;28;20025;-77
2021/08/30 03:38:22;;;;;;;0.82;0.57;;;12.80;99.90;;;;;;5022214;28;20049;-76
2021/08/30 03:40:50;;;;;;;0.20;0.20;;;12.60;99.90;;;;;;5022328;28;20030;-76
2021/08/30 03:43:18;;;;;;;0.20;0.20;;;12.60;99.90;;;;;;5022419;28;20068;-76
2021/08/30 03:45:45;;;;;;;0.20;0.20;;;12.70;99.90;;;;;;5022913;28;20036;-77
2021/08/30 03:48:11;;;;;;;0.15;0.15;;;12.70;99.90;;;;;;5021414;28;20040;-77
2021/08/30 03:50:37;;;;;;;0.75;0.75;;;12.70;99.90;;;;;;5022886;28;20034;-76
2021/08/30 03:53:04;;;;;;;0.50;0.50;;;12.70;99.90;;;;;;5023345;28;20033;-76
2021/08/30 03:55:31;;;;;;;0.20;0.20;;;12.70;99.90;;;;;;5021362;28;20595;-77
2021/08/30 03:57:59;;;;;;;0.10;0.10;;;12.70;99.90;;;;;;5021886;28;20136;-76
2021/08/30 04:00:26;;;;;;;0.25;0.25;;;12.60;99.90;;;;;;5018078;28;20412;-76
2021/08/30 04:02:53;;;;;;;0.13;0.13;;;12.50;99.90;;;;;;5024246;28;20029;-76
2021/08/30 04:05:24;;;;;;;0.20;0.20;;;12.50;99.90;;;;;;5023762;28;20025;-76
2021/08/30 04:07:53;;;;;;;0.77;0.28;;;12.50;99.90;;;;;;5022403;28;20504;-76
2021/08/30 04:10:19;;;;;;;0.38;0.38;;;12.50;99.90;;;;;;5021811;28;20535;-76
2021/08/30 04:12:46;;;;;;;0.40;0.40;;;12.50;99.90;;;;;;5022567;28;20038;-76
2021/08/30 04:15:11;;;;;;;0.10;0.10;;;12.60;99.90;;;;;;5023126;28;20033;-76
2021/08/30 04:17:37;;;;;;;0.45;0.45;;;12.50;99.90;;;;;;5024630;28;20443;-76
2021/08/30 04:20:03;;;;;;;0.17;0.17;;;12.50;99.90;;;;;;5023587;28;20095;-76
2021/08/30 04:22:29;;;;;;;0.05;0.05;;;12.40;99.90;;;;;;5018741;28;20025;-75
2021/08/30 04:24:55;;;;;;;0.20;0.20;;;12.60;99.90;;;;;;5023038;28;20344;-75
2021/08/30 04:27:20;;;;;;;0.10;0.10;;;12.60;99.90;;;;;;5023783;28;20026;-76
2021/08/30 04:29:46;;;;;;;0.10;0.10;;;12.60;99.90;;;;;;5024225;28;20037;-76
2021/08/30 04:32:12;;;;;;;0.20;0.20;;;12.70;99.90;;;;;;5021430;28;20032;-76
2021/08/30 04:34:38;;;;;;;0.10;0.10;;;12.50;99.90;;;;;;5021244;28;20416;-76
2021/08/30 04:37:04;;;;;;;0.70;0.53;;;12.40;99.90;;;;;;5021709;28;20822;-77
2021/08/30 04:39:30;;;;;;;0.10;0.10;;;12.60;99.90;;;;;;5023324;28;20029;-76
2021/08/30 04:41:56;;;;;;;0.30;0.30;;;12.50;99.90;;;;;;5023405;28;20056;-78
2021/08/30 04:44:22;;;;;;;0.57;0.20;;;12.30;99.90;;;;;;5022548;28;20065;-79
2021/08/30 04:46:48;;;;;;;0.63;0.63;;;12.40;99.90;;;;;;5020920;28;20034;-79
2021/08/30 04:49:13;;;;;;;0.10;0.10;;;12.40;99.90;;;;;;5025713;28;20029;-79
2021/08/30 04:51:39;;;;;;;0.10;0.10;;;12.30;99.90;;;;;;5025221;28;20107;-79
2021/08/30 04:54:05;;;;;;;0.33;0.33;;;12.20;99.90;;;;;;5025095;28;20029;-79
2021/08/30 04:56:33;;;;;;;0.10;0.10;;;12.30;99.90;;;;;;5027187;28;20041;-80
2021/08/30 04:58:59;;;;;;;0.47;0.30;;;12.30;99.90;;;;;;5026230;28;20030;-79
2021/08/30 05:01:25;;;;;;;0.13;0.13;;;12.10;99.90;;;;;;5025466;28;20045;-78
2021/08/30 05:03:52;;;;;;;0.00;0.00;;;12.10;99.90;;;;;;5024668;28;20060;-79
2021/08/30 05:06:18;;;;;;;0.30;0.30;;;12.10;99.90;;;;;;5025061;28;20320;-78
2021/08/30 05:08:43;;;;;;;0.28;0.28;;;12.70;99.90;;;;;;5027341;28;20480;-79
2021/08/30 05:11:09;;;;;;;0.30;0.30;;;12.30;99.90;;;;;;5025234;28;20408;-80
2021/08/30 05:13:35;;;;;;;0.10;0.10;;;12.30;99.90;;;;;;5026658;28;20034;-80
2021/08/30 05:16:00;;;;;;;0.10;0.10;;;12.60;99.90;;;;;;5025020;28;20021;-80
2021/08/30 05:18:26;;;;;;;0.28;0.28;;;12.60;99.90;;;;;;5024442;28;20069;-78
2021/08/30 05:20:53;;;;;;;0.10;0.10;;;12.50;99.90;;;;;;5026802;28;20025;-80
2021/08/30 05:23:19;;;;;;;0.20;0.20;;;12.60;99.90;;;;;;5025671;28;20033;-79
2021/08/30 05:25:45;;;;;;;0.10;0.10;;;12.40;99.90;;;;;;5025274;28;20049;-84
2021/08/30 05:28:10;;;;;;;0.30;0.30;;;12.80;99.90;;;;;;5025473;28;20029;-80
2021/08/30 05:30:37;;;;;;;0.30;0.23;;;13.50;99.90;;;;;;5026849;28;20033;-80
2021/08/30 05:33:04;;;;;;;0.35;0.20;;;14.10;99.90;;;;;;5025492;28;20662;-80
2021/08/30 05:35:30;;;;;;;0.10;0.10;;;14.30;99.90;;;;;;5025344;28;20041;-81
2021/08/30 05:37:56;;;;;;;0.33;0.33;;;14.70;99.90;;;;;;5025848;28;20038;-80
2021/08/30 05:40:21;;;;;;;0.35;0.35;;;14.90;99.90;;;;;;5024104;28;20076;-84
2021/08/30 05:42:47;;;;;;;0.27;0.27;;;15.60;99.90;;;;;;5024817;28;20037;-80
2021/08/30 05:45:13;;;;;;;0.27;0.27;;;15.80;99.90;;;;;;5023854;28;20622;-82
2021/08/30 05:47:39;;;;;;;0.10;0.10;;;16.00;99.90;;;;;;5026564;28;20048;-83
2021/08/30 05:50:05;;;;;;;0.10;0.10;;;16.20;99.90;;;;;;5024875;28;20488;-82
2021/08/30 05:52:31;;;;;;;0.32;0.22;;;16.50;99.90;;;;;;5024067;28;20037;-82
2021/08/30 05:54:57;;;;;;;0.10;0.10;;;17.40;98.80;;;;;;5025560;28;20400;-86
2021/08/30 05:57:22;;;;;;;0.20;0.20;;;17.00;98.70;;;;;;5025693;28;20049;-92
2021/08/30 05:59:48;;;;;;;0.40;0.40;;;17.00;99.10;;;;;;5027071;28;20403;-85
2021/08/30 06:02:13;;;;;;;0.20;0.20;;;17.80;97.70;;;;;;5025029;28;20494;-84
2021/08/30 06:04:39;;;;;;;1.03;0.57;;;18.00;96.50;;;;;;5024836;28;20045;-89
2021/08/30 06:07:05;;;;;;;0.37;0.37;;;17.50;96.60;;;;;;5025623;28;20562;-83
2021/08/30 06:09:31;;;;;;;0.00;0.00;;;17.60;96.50;;;;;;5025349;28;20041;-83
2021/08/30 06:11:57;;;;;;;0.83;0.30;;;17.90;96.70;;;;;;5026609;28;20033;-83
2021/08/30 06:14:23;;;;;;;0.30;0.30;;;17.90;96.30;;;;;;5025996;28;20088;-82
2021/08/30 06:16:48;;;;;;;0.28;0.28;;;18.30;94.90;;;;;;5024675;28;20040;-83
2021/08/30 06:19:14;;;;;;;0.13;0.13;;;18.90;93.50;;;;;;5024184;28;20025;-84
2021/08/30 06:21:40;;;;;;;0.10;0.10;;;18.60;92.90;;;;;;5024936;28;20515;-83
2021/08/30 06:24:06;;;;;;;0.20;0.20;;;19.40;91.80;;;;;;5025438;28;20029;-82
2021/08/30 06:26:33;;;;;;;0.10;0.10;;;20.00;91.30;;;;;;5026474;28;20033;-82
2021/08/30 06:28:59;;;;;;;;;;;19.80;90.30;;;;;;5025077;28;20041;-82
2021/08/30 06:31:25;;;;;;;0.15;0.15;;;20.10;89.70;;;;;;5023768;28;19916;-82
2021/08/30 06:33:50;;;;;;;0.23;0.23;;;20.00;90.10;;;;;;5024622;28;20412;-83
2021/08/30 06:36:16;;;;;;;0.60;0.40;;;19.60;90.00;;;;;;5024629;28;20022;-83
2021/08/30 06:38:42;;;;;;;0.20;0.20;;;20.30;89.80;;;;;;5026800;28;20528;-83
2021/08/30 06:41:08;;;;;;;0.30;0.20;;;21.00;85.90;;;;;;5024025;28;20522;-83
2021/08/30 06:43:33;;;;;;;0.00;0.00;;;21.50;83.20;;;;;;5022127;28;20034;-82
2021/08/30 06:45:59;;;;;;;0.20;0.20;;;19.70;88.30;;;;;;5022088;28;20026;-82
2021/08/30 06:48:24;;;;;;;0.00;0.00;;;20.60;85.50;;;;;;5021930;28;20037;-83
2021/08/30 06:50:50;;;;;;;0.00;0.00;;;21.10;83.40;;;;;;5022849;28;20059;-83
2021/08/30 06:53:16;;;;;;;0.20;0.20;;;21.00;80.60;;;;;;5022614;28;20131;-82
2021/08/30 06:55:42;;;;;;;0.00;0.00;;;20.50;83.00;;;;;;5019932;28;20643;-83
2021/08/30 06:58:07;;;;;;;2.70;0.30;;;20.80;84.50;;;;;;5023383;28;20140;-83
2021/08/30 07:00:33;;;;;;;0.10;0.10;;;21.20;80.40;;;;;;5023147;28;20543;-83
2021/08/30 07:02:59;;;;;;;0.30;0.20;;;21.60;78.50;;;;;;5025221;28;20049;-82
2021/08/30 07:05:25;;;;;;;0.20;0.20;;;21.60;77.80;;;;;;5024251;28;20562;-81
2021/08/30 07:07:50;;;;;;;0.30;0.00;;;22.20;78.70;;;;;;5021937;28;20040;-82
2021/08/30 07:10:16;;;;;;;0.17;0.17;;;23.20;72.90;;;;;;5021103;28;20034;-82
2021/08/30 07:12:42;;;;;;;0.00;0.00;;;22.60;75.20;;;;;;5022436;28;20052;-83
2021/08/30 07:15:08;;;;;;;0.03;0.03;;;22.20;72.20;;;;;;5022615;28;20075;-84
2021/08/30 07:17:34;;;;;;;0.20;0.15;;;21.90;74.30;;;;;;5024132;28;20308;-82
2021/08/30 07:20:00;;;;;;;0.00;0.00;;;22.50;74.20;;;;;;5018948;28;20504;-82
2021/08/30 07:22:25;;;;;;;0.17;0.17;;;20.80;78.30;;;;;;5021621;28;20856;-82
2021/08/30 07:24:51;;;;;;;0.10;0.10;;;23.00;71.10;;;;;;5021854;28;20037;-81
2021/08/30 07:27:17;;;;;;;0.20;0.20;;;23.20;71.20;;;;;;5016238;28;20041;-80
2021/08/30 07:29:42;;;;;;;0.00;0.00;;;25.00;63.80;;;;;;5028551;28;20034;-79
2021/08/30 07:32:08;;;;;;;1.65;0.95;;;24.60;61.90;;;;;;5010464;28;20359;-79
2021/08/30 07:34:34;;;;;;;0.00;0.00;;;25.50;59.30;;;;;;5016678;28;20025;-79
2021/08/30 07:37:01;;;;;;;0.15;0.15;;;24.70;62.00;;;;;;5015971;28;20858;-78
2021/08/30 07:39:27;;;;;;;0.00;0.00;;;24.10;62.50;;;;;;5020652;28;20037;-79
2021/08/30 07:41:52;;;;;;;0.00;0.00;;;25.00;58.40;;;;;;5022573;28;20597;-79
2021/08/30 07:44:19;;;;;;;0.43;0.32;;;26.70;55.80;;;;;;5019396;28;20471;-79
2021/08/30 07:46:45;;;;;;;0.15;0.15;;;28.30;47.50;;;;;;5023749;28;20087;-79
2021/08/30 07:49:10;;;;;;;2.55;0.30;;;23.20;59.70;;;;;;5023082;28;20713;-79
2021/08/30 07:51:39;;;;;;;0.27;0.27;;;23.20;57.40;;;;;;5023354;28;20029;-80
2021/08/30 07:54:06;;;;;;;0.00;0.00;;;24.10;59.50;;;;;;5023945;28;20018;-79
2021/08/30 07:56:32;;;;;;;0.15;0.15;;;24.90;57.10;;;;;;5025086;28;20120;-79
2021/08/30 07:58:57;;;;;;;0.00;0.00;;;23.10;58.90;;;;;;5023216;28;20127;-79
2021/08/30 08:01:23;;;;;;;0.10;0.10;;;23.00;62.80;;;;;;5021283;28;20496;-79
2021/08/30 08:03:49;;;;;;;0.17;0.17;;;23.80;58.70;;;;;;5021159;28;20594;-79
2021/08/30 08:06:15;;;;;;;2.33;1.00;;;24.10;57.00;;;;;;5023723;28;20687;-80
2021/08/30 08:08:41;;;;;;;0.00;0.00;;;24.70;53.40;;;;;;5024674;28;20033;-80
2021/08/30 08:11:09;;;;;;;0.00;0.00;;;26.00;48.60;;;;;;5021816;28;20037;-80
2021/08/30 08:13:36;;;;;;;0.17;0.17;;;25.70;52.30;;;;;;5020967;28;20545;-79
2021/08/30 08:16:02;;;;;;;0.82;0.38;;;23.50;55.00;;;;;;5020803;28;20029;-79
2021/08/30 08:18:28;;;;;;;0.40;0.40;;;24.40;57.10;;;;;;5020330;28;20046;-79
2021/08/30 08:20:54;;;;;;;0.08;0.08;;;26.50;48.00;;;;;;5023871;28;20446;-79
2021/08/30 08:23:19;;;;;;;0.03;0.03;;;27.60;46.00;;;;;;5022380;28;20614;-79
2021/08/30 08:25:45;;;;;;;0.00;0.00;;;28.00;40.70;;;;;;5022523;28;20030;-80
2021/08/30 08:28:11;;;;;;;0.38;0.17;;;27.00;40.90;;;;;;5024571;28;20022;-79
2021/08/30 08:30:36;;;;;;;0.20;0.10;;;26.90;44.90;;;;;;5024625;28;20116;-79
2021/08/30 08:33:02;;;;;;;0.00;0.00;;;25.30;46.20;;;;;;5027385;28;20801;-79
2021/08/30 08:35:28;;;;;;;0.00;0.00;;;26.50;42.40;;;;;;5024690;28;20673;-79
2021/08/30 08:37:54;;;;;;;;;;;27.50;41.30;;;;;;5026865;28;20033;-80
2021/08/30 08:40:20;;;;;;;;;;;28.10;37.40;;;;;;5040328;28;20675;-80
2021/08/30 08:42:46;;;;;;;4.18;0.47;;;28.30;33.80;;;;;;5021147;28;19924;-80
2021/08/30 08:45:14;;;;;;;0.00;0.00;;;29.10;35.00;;;;;;5024923;28;20498;-79
2021/08/30 08:47:41;;;;;;;0.00;0.00;;;27.00;39.70;;;;;;5027435;28;20025;-80
2021/08/30 08:50:09;;;;;;;0.10;0.00;;;29.10;32.90;;;;;;5024790;28;20040;-79
2021/08/30 08:52:36;;;;;;;0.00;0.00;;;29.60;32.20;;;;;;5026949;28;20417;-80
2021/08/30 08:55:03;;;;;;;0.17;0.17;;;29.40;29.20;;;;;;5024793;28;20045;-79
2021/08/30 08:57:29;;;;;;;0.20;0.20;;;27.40;35.20;;;;;;5022419;28;20563;-79
2021/08/30 08:59:57;;;;;;;0.03;0.03;;;29.00;32.50;;;;;;5027320;28;20467;-80
2021/08/30 09:02:28;;;;;;;0.10;0.10;;;28.40;30.00;;;;;;5025162;28;21566;-80
2021/08/30 09:04:55;;;;;;;0.10;0.10;;;29.50;32.10;;;;;;5025314;28;20044;-79
2021/08/30 09:07:36;;;;;;;0.10;0.00;;;29.70;28.00;;;;;;5026287;28;20025;-81
2021/08/30 09:10:04;;;;;;;0.10;0.10;;;32.40;26.70;;;;;;5023387;28;20029;-79
2021/08/30 09:12:29;;;;;;;0.00;0.00;;;31.20;25.20;;;;;;5024782;28;20599;-79
2021/08/30 09:14:55;;;;;;;0.05;0.05;;;31.50;24.00;;;;;;5027421;28;20026;-79
2021/08/30 09:17:21;;;;;;;0.00;0.00;;;32.10;22.00;;;;;;5025298;28;20038;-80
2021/08/30 09:19:53;;;;;;;0.03;0.03;;;33.00;19.60;;;;;;5025345;28;20586;-80
2021/08/30 09:22:31;;;;;;;0.10;0.00;;;32.80;23.00;;;;;;5025144;28;20116;-79
2021/08/30 09:25:09;;;;;;;0.75;0.45;;;27.90;28.10;;;;;;5025179;28;20037;-79
2021/08/30 09:27:37;;;;;;;0.20;0.20;;;29.20;27.40;;;;;;5022863;28;20595;-80
2021/08/30 09:30:11;;;;;;;0.30;0.10;;;31.10;23.40;;;;;;5020730;28;20037;-79
2021/08/30 09:32:38;;;;;;;0.15;0.15;;;31.70;20.20;;;;;;5026320;28;20719;-79
2021/08/30 09:35:05;;;;;;;0.22;0.22;;;34.80;14.80;;;;;;5023735;28;20037;-78
2021/08/30 09:37:36;;;;;;;0.00;0.00;;;32.90;17.10;;;;;;5021948;28;20120;-79
2021/08/30 09:40:05;;;;;;;0.00;0.00;;;31.70;18.30;;;;;;5024586;28;20033;-80
2021/08/30 09:42:32;;;;;;;0.20;0.20;;;31.50;18.40;;;;;;5025695;28;20029;-79
2021/08/30 09:45:08;;;;;;;0.00;0.00;;;31.70;17.40;;;;;;5026849;28;20100;-79
2021/08/30 09:47:33;;;;;;;0.35;0.20;;;30.90;21.60;;;;;;5027261;28;20179;-79
2021/08/30 09:49:59;;;;;;;0.10;0.10;;;30.40;22.80;;;;;;5023515;28;20029;-79
2021/08/30 09:52:25;;;;;;;0.20;0.20;;;32.60;16.80;;;;;;5023584;28;20017;-79
2021/08/30 09:54:51;;;;;;;0.20;0.20;;;33.80;14.70;;;;;;5023568;28;20400;-79
2021/08/30 09:57:17;;;;;;;;;;;33.30;16.80;;;;;;5024358;28;20048;-79
2021/08/30 09:59:43;;;;;;;0.10;0.10;;;32.60;14.20;;;;;;5027255;28;19913;-79
2021/08/30 10:02:12;;;;;;;6.88;0.45;;;32.50;13.80;;;;;;5014510;28;20058;-79
2021/08/30 10:04:40;;;;;;;0.00;0.00;;;32.60;19.60;;;;;;5013596;28;20104;-79
2021/08/30 10:07:07;;;;;;;0.00;0.00;;;32.70;15.80;;;;;;5015662;28;20032;-80
2021/08/30 10:09:34;;;;;;;0.03;0.03;;;32.10;14.30;;;;;;5021755;28;20033;-79
2021/08/30 10:12:00;;;;;;;0.22;0.22;;;32.80;15.10;;;;;;5023345;28;20023;-79
2021/08/30 10:14:29;;;;;;;0.00;0.00;;;33.10;14.50;;;;;;5012836;28;20037;-80
2021/08/30 10:16:57;;;;;;;0.63;0.52;;;34.30;9.20;;;;;;5011292;28;20038;-79
2021/08/30 10:19:36;;;;;;;0.98;0.35;;;32.30;11.90;;;;;;5010965;28;20071;-79
2021/08/30 10:22:16;;;;;;;0.20;0.20;;;31.70;16.60;;;;;;5024663;28;20040;-78
2021/08/30 10:24:42;;;;;;;0.00;0.00;;;33.90;16.30;;;;;;5011416;28;20115;-79
2021/08/30 10:27:11;;;;;;;0.00;0.00;;;35.80;8.50;;;;;;5009306;28;20033;-79
2021/08/30 10:29:39;;;;;;;1.65;0.68;;;35.00;8.30;;;;;;5014668;28;20087;-80
2021/08/30 10:32:08;;;;;;;0.00;0.00;;;32.50;10.80;;;;;;5012065;28;20054;-79
2021/08/30 10:34:38;;;;;;;1.23;0.32;;;31.10;22.70;;;;;;5008760;28;20030;-79
2021/08/30 10:37:04;;;;;;;0.30;0.28;;;32.50;17.30;;;;;;5010329;28;20038;-79
2021/08/30 10:39:38;;;;;;;0.20;0.20;;;32.60;17.00;;;;;;5016352;28;20379;-78
2021/08/30 10:42:04;;;;;;;0.00;0.00;;;29.70;20.80;;;;;;5026919;28;20083;-76
2021/08/30 10:44:31;;;;;;;0.10;0.10;;;32.00;21.30;;;;;;5024228;28;20515;-77
2021/08/30 10:47:00;;;;;;;0.00;0.00;;;31.90;22.30;;;;;;5023722;28;20578;-78
2021/08/30 10:49:26;;;;;;;0.15;0.05;;;30.60;25.30;;;;;;5022693;28;20165;-78
2021/08/30 10:52:02;;;;;;;0.00;0.00;;;28.70;25.90;;;;;;5023259;28;20079;-79
2021/08/30 10:54:27;;;;;;;;;;;26.40;28.90;;;;;;5009356;28;20601;-78
2021/08/30 10:56:56;;;;;;;0.20;0.10;;;25.40;32.40;;;;;;5024055;28;19917;-78
2021/08/30 10:59:25;;;;;;;0.00;0.00;;;24.00;45.10;;;;;;5010736;28;20128;-78
2021/08/30 11:01:54;;;;;;;0.00;0.00;;;23.60;36.30;;;;;;5007720;28;20041;-78
2021/08/30 11:04:35;;;;;;;0.10;0.10;;;23.80;37.90;;;;;;5009171;28;20049;-78
2021/08/30 11:07:02;;;;;;;1.35;0.10;;;24.00;37.50;;;;;;5010976;28;20689;-78
2021/08/30 11:09:28;;;;;;;0.10;0.10;;;23.30;38.40;;;;;;5010865;28;20136;-78
2021/08/30 11:11:54;;;;;;;0.00;0.00;;;23.80;39.40;;;;;;5007886;28;20067;-78
2021/08/30 11:14:21;;;;;;;0.00;0.00;;;24.30;38.00;;;;;;5018066;28;20474;-78
2021/08/30 11:16:55;;;;;;;0.10;0.10;;;23.80;38.30;;;;;;5022230;28;20413;-78
2021/08/30 11:19:21;;;;;;;0.30;0.20;;;23.30;40.40;;;;;;5022167;28;20059;-78
2021/08/30 11:21:47;;;;;;;0.10;0.10;;;23.30;39.10;;;;;;5021989;28;20127;-78
2021/08/30 11:24:43;;;;;;;16.85;0.93;;;23.50;40.00;;;;;;5022914;28;20029;-78
2021/08/30 11:27:14;;;;;;;0.98;0.20;;;24.20;39.20;;;;;;5016594;28;20526;-78
2021/08/30 11:29:51;;;;;;;0.13;0.13;;;24.70;39.00;;;;;;5024873;28;20083;-78
2021/08/30 11:32:19;;;;;;;0.10;0.10;;;24.80;37.70;;;;;;5022942;28;20642;-79
2021/08/30 11:34:46;;;;;;;0.10;0.10;;;23.90;38.00;;;;;;5022356;28;20515;-79
2021/08/30 11:37:15;;;;;;;0.00;0.00;;;23.60;41.90;;;;;;5023027;28;20479;-79
2021/08/30 11:39:43;;;;;;;0.32;0.32;;;23.10;41.40;;;;;;5020516;28;20389;-78
2021/08/30 11:42:11;;;;;;;1.35;0.05;;;23.50;41.90;;;;;;5021196;28;20037;-79
2021/08/30 11:44:39;;;;;;;0.20;0.10;;;23.60;40.80;;;;;;5024821;28;20408;-79
2021/08/30 11:47:10;;;;;;;0.30;0.20;;;23.00;42.20;;;;;;5022657;28;20033;-79
2021/08/30 11:49:45;;;;;;;0.22;0.05;;;23.30;42.20;;;;;;5021886;28;20113;-78
2021/08/30 11:52:13;;;;;;;0.10;0.10;;;23.80;41.50;;;;;;5022009;28;20130;-78
2021/08/30 11:54:55;;;;;;;0.00;0.00;;;23.80;41.20;;;;;;5022080;28;20571;-78
2021/08/30 11:57:20;;;;;;;0.00;0.00;;;24.00;40.90;;;;;;5022437;28;20038;-78
2021/08/30 11:59:51;;;;;;;0.07;0.07;;;24.00;40.00;;;;;;5028398;28;20622;-79
2021/08/30 12:02:17;;;;;;;0.20;0.20;;;23.70;41.10;;;;;;5026044;28;20876;-78
2021/08/30 12:04:44;;;;;;;0.22;0.22;;;23.50;42.00;;;;;;5025859;28;20053;-78
2021/08/30 12:07:13;;;;;;;0.08;0.00;;;23.90;42.30;;;;;;5023881;28;20500;-78
2021/08/30 12:09:52;;;;;;;0.00;0.00;;;23.20;42.70;;;;;;5023808;28;20026;-78
2021/08/30 12:12:31;;;;;;;0.00;0.00;;;23.30;43.00;;;;;;5025047;28;20374;-78
2021/08/30 12:15:03;;;;;;;0.00;0.00;;;22.70;43.20;;;;;;5025236;28;20021;-78
2021/08/30 12:17:51;;;;;;;0.10;0.10;;;23.10;44.10;;;;;;5027627;28;20041;-77
2021/08/30 12:20:26;;;;;;;0.08;0.08;;;23.20;43.10;;;;;;5026130;28;20025;-78
2021/08/30 12:23:22;;;;;;;0.05;0.05;;;23.40;43.00;;;;;;5025876;28;20033;-81
2021/08/30 12:25:51;;;;;;;0.15;0.05;;;23.70;43.50;;;;;;5024471;28;20025;-78
2021/08/30 12:28:17;;;;;;;0.20;0.10;;;23.40;42.50;;;;;;5024742;28;20041;-78
2021/08/30 12:30:45;;;;;;;0.40;0.37;;;23.50;42.00;;;;;;5024643;28;20026;-77
2021/08/30 12:33:17;;;;;;;0.00;0.00;;;22.90;42.80;;;;;;5025706;28;20774;-78
2021/08/30 12:35:54;;;;;;;0.10;0.10;;;22.80;43.90;;;;;;5031583;28;20566;-78
2021/08/30 12:38:24;;;;;;;0.00;0.00;;;23.00;45.20;;;;;;5015093;28;20042;-78
2021/08/30 12:40:52;;;;;;;0.00;0.00;;;23.00;44.20;;;;;;5016344;28;20408;-79
2021/08/30 12:43:18;;;;;;;0.00;0.00;;;23.10;44.10;;;;;;5020036;28;20529;-78
2021/08/30 12:45:45;;;;;;;0.10;0.10;;;23.20;43.30;;;;;;5013924;28;20044;-78
2021/08/30 12:48:12;;;;;;;0.00;0.00;;;23.40;45.10;;;;;;5010104;28;20026;-78
2021/08/30 12:50:39;;;;;;;0.10;0.10;;;23.30;43.80;;;;;;5013546;28;20044;-78
2021/08/30 12:53:07;;;;;;;0.10;0.08;;;23.30;44.00;;;;;;5012569;28;20029;-78
2021/08/30 12:55:34;;;;;;;0.20;0.20;;;23.50;43.50;;;;;;5014411;28;20673;-78